Time,TemperatureF,DewpointF,PressureIn,WindDirection,WindDirectionDegrees,WindSpeedMPH,WindSpeedGustMPH,Humidity,HourlyPrecipIn,Conditions,Clouds,dailyrainin,SoftwareType,DateUTC
2013-03-10 00:06:00,35.4,30.0,30.22,ESE,114,0.0,1.0,81,0.00,,,0.00,weatherlink.com 1.10,2013-03-10 05:06:00,
2013-03-10 00:21:00,35.0,30.0,30.21,ENE,75,0.0,1.0,81,0.00,,,0.00,weatherlink.com 1.10,2013-03-10 05:21:00,
2013-03-10 00:37:00,34.9,30.0,30.21,ENE,76,0.0,1.0,81,0.00,,,0.00,weatherlink.com 1.10,2013-03-10 05:37:00,
2013-03-10 00:52:00,34.4,30.0,30.20,East,91,0.0,1.0,83,0.00,,,0.00,weatherlink.com 1.10,2013-03-10 05:52:00,
2013-03-10 01:07:00,34.3,30.0,30.20,East,91,0.0,1.0,84,0.00,,,0.00,weatherlink.com 1.10,2013-03-10 06:07:00,
2013-03-10 01:22:00,34.7,30.0,30.21,East,90,0.0,1.0,82,0.00,,,0.00,weatherlink.com 1.10,2013-03-10 06:22:00,
2013-03-10 01:37:00,34.6,29.0,30.20,East,91,0.0,1.0,81,0.00,,,0.00,weatherlink.com 1.10,2013-03-10 06:37:00,
2013-03-10 01:52:00,34.6,29.0,30.20,East,91,0.0,1.0,81,0.00,,,0.00,weatherlink.com 1.10,2013-03-10 06:52:00,
2013-03-10 03:07:00,34.9,30.0,30.20,East,91,0.0,1.0,82,0.00,,,0.00,weatherlink.com 1.10,2013-03-10 07:07:00,
2013-03-10 03:22:00,35.2,31.0,30.20,East,91,0.0,1.0,83,0.00,,,0.00,weatherlink.com 1.10,2013-03-10 07:22:00,
2013-03-10 03:37:00,35.9,31.0,30.19,East,92,0.0,1.0,83,0.00,,,0.00,weatherlink.com 1.10,2013-03-10 07:37:00,
2013-03-10 03:52:00,36.5,32.0,30.19,East,89,0.0,1.0,82,0.00,,,0.00,weatherlink.com 1.10,2013-03-10 07:52:00,
2013-03-10 04:07:00,37.0,32.0,30.18,East,81,1.0,2.0,81,0.00,,,0.00,weatherlink.com 1.10,2013-03-10 08:07:00,
2013-03-10 04:22:00,37.5,32.0,30.18,ESE,110,0.0,2.0,81,0.00,,,0.00,weatherlink.com 1.10,2013-03-10 08:22:00,
2013-03-10 04:37:00,38.1,33.0,30.17,North,7,1.0,1.0,81,0.00,,,0.00,weatherlink.com 1.10,2013-03-10 08:37:00,
2013-03-10 04:52:00,39.1,34.0,30.16,East,94,1.0,2.0,81,0.00,,,0.00,weatherlink.com 1.10,2013-03-10 08:52:00,
2013-03-10 05:07:00,39.1,32.0,30.16,East,79,0.0,1.0,76,0.00,,,0.00,weatherlink.com 1.10,2013-03-10 09:07:00,
2013-03-10 05:22:00,39.2,33.0,30.16,North,354,0.0,1.0,78,0.00,,,0.00,weatherlink.com 1.10,2013-03-10 09:22:00,
2013-03-10 05:37:00,38.8,33.0,30.16,East,89,0.0,1.0,79,0.00,,,0.00,weatherlink.com 1.10,2013-03-10 09:37:00,
2013-03-10 05:52:00,38.8,34.0,30.17,ESE,110,0.0,1.0,82,0.00,,,0.00,weatherlink.com 1.10,2013-03-10 09:52:00,
2013-03-10 06:07:00,38.5,33.0,30.17,ESE,110,0.0,1.0,82,0.00,,,0.00,weatherlink.com 1.10,2013-03-10 10:07:00,
2013-03-10 06:22:00,-999.0,-99.9,30.17,North,-999,-999.0,-999.0,-999,0.00,,,0.00,weatherlink.com 1.10,2013-03-10 10:22:00,
2013-03-10 06:37:00,-999.0,-99.9,30.17,North,-999,-999.0,-999.0,-999,0.00,,,0.00,weatherlink.com 1.10,2013-03-10 10:37:00,
2013-03-10 06:52:00,-999.0,-99.9,30.17,North,-999,-999.0,-999.0,-999,0.00,,,0.00,weatherlink.com 1.10,2013-03-10 10:52:00,
2013-03-10 07:07:00,-999.0,-99.9,30.17,North,-999,-999.0,-999.0,-999,0.00,,,0.00,weatherlink.com 1.10,2013-03-10 11:07:00,
2013-03-10 07:23:00,-999.0,-99.9,30.17,North,-999,-999.0,-999.0,-999,0.00,,,0.00,weatherlink.com 1.10,2013-03-10 11:23:00,
2013-03-10 07:38:00,-999.0,-99.9,30.17,North,-999,-999.0,-999.0,-999,0.00,,,0.00,weatherlink.com 1.10,2013-03-10 11:38:00,
2013-03-10 07:53:00,-999.0,-99.9,30.17,North,-999,-999.0,-999.0,-999,0.00,,,0.00,weatherlink.com 1.10,2013-03-10 11:53:00,
2013-03-10 08:08:00,-999.0,-99.9,30.17,North,-999,-999.0,-999.0,-999,0.00,,,0.00,weatherlink.com 1.10,2013-03-10 12:08:00,
2013-03-10 08:23:00,-999.0,-99.9,30.18,North,-999,-999.0,-999.0,-999,0.00,,,0.00,weatherlink.com 1.10,2013-03-10 12:23:00,
2013-03-10 08:38:00,42.7,35.0,30.18,ESE,119,0.0,2.0,73,0.00,,,0.00,weatherlink.com 1.10,2013-03-10 12:38:00,
2013-03-10 08:53:00,43.4,35.0,30.18,East,99,0.0,1.0,72,0.00,,,0.00,weatherlink.com 1.10,2013-03-10 12:53:00,
2013-03-10 09:08:00,44.4,35.0,30.18,NNW,330,0.0,1.0,69,0.00,,,0.00,weatherlink.com 1.10,2013-03-10 13:08:00,
2013-03-10 09:23:00,44.8,35.0,30.19,NNW,330,0.0,1.0,68,0.00,,,0.00,weatherlink.com 1.10,2013-03-10 13:23:00,
2013-03-10 09:38:00,45.6,34.0,30.19,West,262,0.0,1.0,64,0.00,,,0.00,weatherlink.com 1.10,2013-03-10 13:38:00,
2013-03-10 09:53:00,47.6,34.0,30.18,NE,50,0.0,2.0,59,0.00,,,0.00,weatherlink.com 1.10,2013-03-10 13:53:00,
2013-03-10 10:08:00,49.0,35.0,30.19,West,262,0.0,2.0,58,0.00,,,0.00,weatherlink.com 1.10,2013-03-10 14:08:00,
2013-03-10 10:23:00,50.3,33.0,30.19,SSE,151,3.0,5.0,52,0.00,,,0.00,weatherlink.com 1.10,2013-03-10 14:23:00,
2013-03-10 10:38:00,52.6,35.0,30.19,NE,50,1.0,2.0,51,0.00,,,0.00,weatherlink.com 1.10,2013-03-10 14:38:00,
2013-03-10 10:53:00,55.0,33.0,30.20,West,261,1.0,5.0,43,0.00,,,0.00,weatherlink.com 1.10,2013-03-10 14:53:00,
2013-03-10 11:08:00,56.7,32.0,30.20,NNE,19,0.0,5.0,39,0.00,,,0.00,weatherlink.com 1.10,2013-03-10 15:08:00,
2013-03-10 11:23:00,58.4,33.0,30.19,SSW,197,4.0,4.0,39,0.00,,,0.00,weatherlink.com 1.10,2013-03-10 15:23:00,
2013-03-10 11:38:00,59.3,33.0,30.19,East,86,2.0,4.0,37,0.00,,,0.00,weatherlink.com 1.10,2013-03-10 15:38:00,
2013-03-10 11:53:00,61.0,34.0,30.18,SSE,156,2.0,4.0,37,0.00,,,0.00,weatherlink.com 1.10,2013-03-10 15:53:00,
2013-03-10 12:09:00,62.1,35.0,30.18,ESE,117,1.0,5.0,37,0.00,,,0.00,weatherlink.com 1.10,2013-03-10 16:09:00,
2013-03-10 12:24:00,63.3,34.0,30.18,WSW,243,0.0,3.0,34,0.00,,,0.00,weatherlink.com 1.10,2013-03-10 16:24:00,
2013-03-10 12:39:00,64.7,36.0,30.17,East,101,1.0,3.0,35,0.00,,,0.00,weatherlink.com 1.10,2013-03-10 16:39:00,
2013-03-10 12:54:00,65.2,34.0,30.16,SSW,213,0.0,4.0,32,0.00,,,0.00,weatherlink.com 1.10,2013-03-10 16:54:00,
2013-03-10 13:09:00,65.5,36.0,30.16,ESE,119,3.0,6.0,34,0.00,,,0.00,weatherlink.com 1.10,2013-03-10 17:09:00,
2013-03-10 13:24:00,66.0,34.0,30.14,WSW,244,2.0,6.0,30,0.00,,,0.00,weatherlink.com 1.10,2013-03-10 17:24:00,
2013-03-10 13:39:00,67.9,34.0,30.14,SSW,207,6.0,7.0,29,0.00,,,0.00,weatherlink.com 1.10,2013-03-10 17:39:00,
2013-03-10 13:54:00,67.5,33.0,30.13,SE,142,0.0,7.0,28,0.00,,,0.00,weatherlink.com 1.10,2013-03-10 17:54:00,
2013-03-10 14:09:00,68.4,32.0,30.12,South,190,2.0,7.0,26,0.00,,,0.00,weatherlink.com 1.10,2013-03-10 18:09:00,
2013-03-10 14:24:00,68.4,32.0,30.11,SSW,210,4.0,5.0,26,0.00,,,0.00,weatherlink.com 1.10,2013-03-10 18:24:00,
2013-03-10 14:39:00,69.2,33.0,30.10,East,84,3.0,6.0,26,0.00,,,0.00,weatherlink.com 1.10,2013-03-10 18:39:00,
2013-03-10 14:54:00,69.8,34.0,30.09,SSW,210,1.0,4.0,27,0.00,,,0.00,weatherlink.com 1.10,2013-03-10 18:54:00,
2013-03-10 15:09:00,68.8,35.0,30.08,ESE,122,2.0,7.0,29,0.00,,,0.00,weatherlink.com 1.10,2013-03-10 19:09:00,
2013-03-10 15:24:00,69.3,36.0,30.07,SE,143,1.0,6.0,29,0.00,,,0.00,weatherlink.com 1.10,2013-03-10 19:24:00,
2013-03-10 15:39:00,70.4,37.0,30.06,ENE,77,4.0,4.0,29,0.00,,,0.00,weatherlink.com 1.10,2013-03-10 19:39:00,
2013-03-10 15:54:00,70.3,34.0,30.06,SE,143,4.0,8.0,26,0.00,,,0.00,weatherlink.com 1.10,2013-03-10 19:54:00,
2013-03-10 16:09:00,70.4,35.0,30.06,East,90,1.0,7.0,27,0.00,,,0.00,weatherlink.com 1.10,2013-03-10 20:09:00,
2013-03-10 16:24:00,70.3,35.0,30.06,ENE,71,2.0,4.0,27,0.00,,,0.00,weatherlink.com 1.10,2013-03-10 20:24:00,
2013-03-10 16:39:00,70.1,34.0,30.05,ENE,68,2.0,7.0,27,0.00,,,0.00,weatherlink.com 1.10,2013-03-10 20:39:00,
2013-03-10 16:54:00,69.8,34.0,30.05,East,80,1.0,5.0,27,0.00,,,0.00,weatherlink.com 1.10,2013-03-10 20:54:00,
2013-03-10 17:09:00,70.0,34.0,30.04,ESE,105,2.0,4.0,27,0.00,,,0.00,weatherlink.com 1.10,2013-03-10 21:09:00,
2013-03-10 17:24:00,69.9,35.0,30.04,East,79,3.0,5.0,28,0.00,,,0.00,weatherlink.com 1.10,2013-03-10 21:24:00,
2013-03-10 17:39:00,69.5,35.0,30.02,NE,41,1.0,6.0,28,0.00,,,0.00,weatherlink.com 1.10,2013-03-10 21:39:00,
2013-03-10 17:54:00,69.3,35.0,30.02,ENE,78,0.0,9.0,28,0.00,,,0.00,weatherlink.com 1.10,2013-03-10 21:54:00,
2013-03-10 18:09:00,69.2,34.0,30.02,NE,36,2.0,5.0,27,0.00,,,0.00,weatherlink.com 1.10,2013-03-10 22:09:00,
2013-03-10 18:25:00,68.6,32.0,30.03,ENE,62,4.0,5.0,26,0.00,,,0.00,weatherlink.com 1.10,2013-03-10 22:25:00,
2013-03-10 18:39:00,68.4,35.0,30.04,ESE,104,1.0,5.0,29,0.00,,,0.00,weatherlink.com 1.10,2013-03-10 22:39:00,
2013-03-10 18:54:00,67.6,33.0,30.03,WSW,240,2.0,2.0,28,0.00,,,0.00,weatherlink.com 1.10,2013-03-10 22:54:00,
2013-03-10 19:09:00,65.6,36.0,30.03,East,81,0.0,2.0,33,0.00,,,0.00,weatherlink.com 1.10,2013-03-10 23:09:00,
2013-03-10 19:24:00,65.1,34.0,30.04,ENE,65,0.0,3.0,31,0.00,,,0.00,weatherlink.com 1.10,2013-03-10 23:24:00,
2013-03-10 19:39:00,64.4,34.0,30.05,WNW,290,2.0,3.0,32,0.00,,,0.00,weatherlink.com 1.10,2013-03-10 23:39:00,
2013-03-10 19:55:00,63.6,33.0,30.06,West,276,0.0,4.0,32,0.00,,,0.00,weatherlink.com 1.10,2013-03-10 23:55:00,
2013-03-10 20:10:00,62.6,32.0,30.06,NE,49,2.0,7.0,32,0.00,,,0.00,weatherlink.com 1.10,2013-03-11 00:10:00,
2013-03-10 20:25:00,61.6,32.0,30.06,NE,39,0.0,7.0,33,0.00,,,0.00,weatherlink.com 1.10,2013-03-11 00:25:00,
2013-03-10 20:40:00,60.4,32.0,30.06,NE,36,0.0,4.0,34,0.00,,,0.00,weatherlink.com 1.10,2013-03-11 00:40:00,
2013-03-10 20:55:00,59.9,33.0,30.06,ENE,58,1.0,4.0,36,0.00,,,0.00,weatherlink.com 1.10,2013-03-11 00:55:00,
2013-03-10 21:10:00,59.0,33.0,30.06,North,356,1.0,2.0,37,0.00,,,0.00,weatherlink.com 1.10,2013-03-11 01:10:00,
2013-03-10 21:25:00,58.1,34.0,30.06,WNW,289,1.0,1.0,40,0.00,,,0.00,weatherlink.com 1.10,2013-03-11 01:25:00,
2013-03-10 21:40:00,57.1,35.0,30.05,East,95,0.0,2.0,43,0.00,,,0.00,weatherlink.com 1.10,2013-03-11 01:40:00,
2013-03-10 21:55:00,55.5,36.0,30.05,ESE,103,0.0,1.0,49,0.00,,,0.00,weatherlink.com 1.10,2013-03-11 01:55:00,
2013-03-10 22:10:00,55.9,33.0,30.04,NNE,20,1.0,2.0,43,0.00,,,0.00,weatherlink.com 1.10,2013-03-11 02:10:00,
2013-03-10 22:25:00,56.9,33.0,30.03,ENE,61,1.0,3.0,41,0.00,,,0.00,weatherlink.com 1.10,2013-03-11 02:25:00,
2013-03-10 22:40:00,57.1,33.0,30.02,NNE,16,1.0,4.0,40,0.00,,,0.00,weatherlink.com 1.10,2013-03-11 02:40:00,
2013-03-10 22:55:00,57.1,33.0,30.02,NE,54,1.0,6.0,41,0.00,,,0.00,weatherlink.com 1.10,2013-03-11 02:55:00,
2013-03-10 23:10:00,56.5,34.0,30.04,NNW,342,1.0,2.0,43,0.00,,,0.00,weatherlink.com 1.10,2013-03-11 03:10:00,
2013-03-10 23:25:00,55.4,36.0,30.04,NE,56,1.0,3.0,48,0.00,,,0.00,weatherlink.com 1.10,2013-03-11 03:25:00,
2013-03-10 23:40:00,53.0,36.0,30.04,NW,322,0.0,3.0,52,0.00,,,0.00,weatherlink.com 1.10,2013-03-11 03:40:00,
2013-03-10 23:55:00,51.7,36.0,30.03,SE,129,0.0,1.0,55,0.00,,,0.00,weatherlink.com 1.10,2013-03-11 03:55:00,